Tiempo atmosférico en la estación meteorológica de Robledo De Chavela, Madrid (790 m.)



Fecha
DESCASC
Temp. máxima en grados centígrados (hora)
DESCASC
Temp. mínima en grados centígrados (hora)
DESCASC
Temp. media en grados centígrados
DESCASC
Racha de viento máxima en m/sg (hora)
DESCASC
Velocidad máxima media en intervalos de 10 minutos(hora)
DESCASC
Precipitaciones diarias en mm
DESCASC
Precipitaciones de 00:00 a 06:00 en mm
DESCASC
Precipitaciones de 06:00 a 12:00 en mm
DESCASC
Precipitaciones de 12:00 a 18:00 en mm
DESCASC
Precipitaciones de 18:00 a 24:00 en mm
DESCASC
18-04-2019 11.9 (18:30) 7.8 (23:59) 9.8 7.78 (02:00) 3.89 (13:50) 11 3.7 1.1 4.1 2.1
17-04-2019 21.2 (17:20) 9.3 (07:20) 15.3 12.22 (18:40) 6.11 (18:40) 0.5 0 0 0 0.5
16-04-2019 19.9 (17:40) 5.2 (00:00) 12.5 8.06 (15:20) 3.89 (15:50) 0 0 0 0 0
15-04-2019 21.9 (15:40) 10.3 (00:00) 16.1 15.83 (22:50) 5.83 (15:00) 0 0 0 0 0
14-04-2019 21.6 (15:50) 12.8 (00:00) 17.2 11.11 (06:30) 5.28 (06:40) 0 0 0 0 0
13-04-2019 20.3 (18:20) 9.3 (00:00) 14.8 9.44 (04:30) 5 (06:40) 0 0 0 0 0
12-04-2019 17.2 (17:00) 2.2 (00:00) 9.7 10 (16:10) 5 (23:50) 0 0 0 0 0
11-04-2019 14.8 (16:40) 4.4 (00:00) 9.6 13.89 (00:50) 6.94 (00:40) 0 0 0 0 0
10-04-2019 13.3 (15:50) 5.7 (00:00) 9.5 11.67 (23:30) 6.11 (23:30) 3.4 0 0 3.1 0.3
09-04-2019 12.9 (16:50) 1.7 (00:00) 7.3 12.5 (16:00) 5.28 (16:00) 3.2 0 0.1 2 1.1
08-04-2019 15 (16:50) 6.4 (00:00) 10.7 10.83 (14:40) 5.28 (21:40) 4.3 1.2 2.1 0.4 0.6
07-04-2019 12.2 (14:40) 3.6 (00:00) 7.9 10 (12:30) 4.72 (10:40) 0.6 0 0 0 0.6
06-04-2019 9.9 (16:10) 0.3 (00:00) 5.1 12.78 (14:30) 6.67 (14:40) 0.1 0 0 0.1 0
05-04-2019 9.2 (00:00) 1.9 (00:00) 5.5 12.22 (17:10) 5.83 (04:40) 12.6 0 1.8 10.7 0.1
04-04-2019 13.6 (17:30) 0.7 (00:00) 7.2 11.67 (10:20) 6.67 (09:40) 0 0 0 0 0
03-04-2019 13 (17:10) 6.6 (00:00) 9.8 15 (17:20) 6.39 (16:50) 0 0 0 0 0
02-04-2019 17.8 (13:00) 6.4 (00:00) 12.1 8.33 (11:40) 3.89 (13:20) 3.1 0 0 3.1 0
01-04-2019 16.7 (17:20) 7.9 (00:00) 12.3 7.78 (16:30) 3.61 (18:30) 0 0 0 0 0
31-03-2019 12.7 (11:50) 5.5 (00:00) 9.1 6.94 (18:50) 3.89 (14:40) 0 0 0 0 0
30-03-2019 17.7 (17:20) 3.7 (00:00) 10.7 6.94 (15:30) 3.33 (12:00) 0 0 0 0 0
29-03-2019 17.5 (16:20) 5.5 (00:00) 11.5 8.89 (13:30) 4.17 (11:20) 0 0 0 0 0
28-03-2019 17.7 (16:20) 4.8 (00:00) 11.3 6.39 (15:20) 3.33 (02:00) 0 0 0 0 0
27-03-2019 17.6 (16:50) 2 (00:00) 9.8 5.28 (17:20) 2.78 (11:40) 0 0 0 0 0
26-03-2019 20.1 (16:30) 3.3 (00:00) 11.7 10.28 (17:30) 5 (11:00) 0 0 0 0 0
25-03-2019 21.4 (16:00) 6.8 (00:00) 14.1 10 (17:40) 3.89 (18:00) 0 0 0 0 0
24-03-2019 19.9 (15:20) 6.9 (00:00) 13.4 10 (14:10) 5 (13:40) 0 0 0 0 0
23-03-2019 19.8 (15:30) 3.9 (00:00) 11.8 8.89 (12:00) 4.72 (14:40) 0 0 0 0 0
22-03-2019 17 (16:00) 0.1 (00:00) 8.6 9.17 (14:00) 3.89 (17:20) 0 0 0 0 0
21-03-2019 14.8 (16:40) 2.5 (00:00) 8.7 5.83 (12:50) 3.06 (03:20) 0 0 0 0 0

Gráficas

Temp. máximas Temp. mínimas Temp. medias Precipitaciones Rachas de viento máximas Velocidades máximas media en intervalos de 10 minutos

Datos horarios

Fecha y hora oficial Temperatura (ºC) Velocidad del viento (km/h) Dirección del viento Racha (km/h) Dirección de racha Precipitación (mm) Presión (hPa) Tendencia (hPa) Humedad (%)
2019-04-19 23:00:00 8.6 7 Sudeste 16 Este 0.6 931.7 2.8 88
2019-04-19 22:00:00 8.8 10 Este 17 Este 1.3 931 2.3 88
2019-04-19 21:00:00 9 9 Este 17 Sudeste 1.5 929.6 1.2 88
2019-04-19 20:00:00 9 5 Este 15 Este 3.2 928.9 0.5 88
2019-04-19 19:00:00 9.2 5 Sudeste 9 Sudeste 1.2 928.7 -0.2 86
2019-04-19 18:00:00 9.5 4 Sudeste 11 Nordeste 0.4 928.4 -0.5 84
2019-04-19 17:00:00 9.6 8 Este 15 Este 0.6 928.4 -0.4 81
2019-04-19 16:00:00 9.6 10 Este 22 Nordeste 0 928.9 0.1 75
2019-04-19 15:00:00 10.1 12 Este 26 Este 0 928.9 0.4 69
2019-04-19 14:00:00 10.1 11 Este 23 Este 0 928.8 0.4 69
2019-04-19 13:00:00 10.2 10 Este 21 Este 0 928.8 1.3 72
2019-04-19 12:00:00 9.6 9 Este 17 Nordeste 0 928.5 1.4 80
2019-04-19 11:00:00 8.8 7 Este 18 Nordeste 0 928.4 1.9 86
2019-04-19 10:00:00 7.9 9 Este 20 Nordeste 0 927.5 1.6 86
2019-04-19 09:00:00 7.6 9 Nordeste 17 Nordeste 0.2 927.1 1.7 88
2019-04-19 08:00:00 7.7 8 Nordeste 17 Nordeste 0.4 926.5 1.2 88
2019-04-19 07:00:00 7.6 7 Nordeste 19 Este 0.7 925.9 0.7 88
2019-04-19 06:00:00 7.7 8 Nordeste 19 Nordeste 1.2 925.4 0.3 88
2019-04-19 05:00:00 7.6 7 Nordeste 17 Este 1 925.3 -0.1 88
2019-04-19 04:00:00 7.7 7 Nordeste 15 Nordeste 2.4 925.2 -0.1 88
2019-04-19 03:00:00 8 3 Nordeste 7 Nordeste 0.1 925.1 -0.5 88
2019-04-19 02:00:00 8.1 2 Nordeste 4 Este 0 925.4 -0.1 88
2019-04-19 01:00:00 8 0 Calma 9 Este 2 925.3 0.2 88
2019-04-19 00:00:00 7.8 7 Este 15 Sudeste 1.8 925.6 1.3 88
2019-04-18 23:00:00 9.1 5 Este 13 Este 0.3 925.5 1.4 85
2019-04-18 22:00:00 9.4 0 Calma 12 Sudeste 0 925.1 1.2 85
2019-04-18 21:00:00 9.5 6 Sudeste 12 Sudeste 0 924.3 0.2 79
2019-04-18 20:00:00 10.4 0 Calma 10 Nordeste 0 924.1 -0.1 67
2019-04-18 19:00:00 10.7 4 Este 12 Este 0 923.9 -0.8 67
2019-04-18 18:00:00 10.3 5 Este 12 Nordeste 0.1 924.1 -0.9 75
2019-04-18 17:00:00 9.4 5 Este 11 Este 0.1 924.2 -0.7 76
2019-04-18 16:00:00 9.5 7 Sudeste 18 Este 0 924.7 -0.6 77
2019-04-18 15:00:00 9 5 Sudeste 17 Este 0.4 925 -0.6 84
2019-04-18 14:00:00 9.1 9 Este 26 Sudeste 0.7 924.9 -0.9 82
2019-04-18 13:00:00 8.9 10 Este 21 Este 2.8 925.3 -0.2 86
2019-04-18 12:00:00 9.1 8 Este 15 Sudeste 1.1 925.6 0.5 86
2019-04-18 11:00:00 9.2 7 Este 12 Sudeste 0 925.8 0.8 83
2019-04-18 10:00:00 9.3 3 Nordeste 9 Nordeste 0 925.5 0.7 86
2019-04-18 09:00:00 8.8 6 Nordeste 10 Este 0 925.1 0.7 88
2019-04-18 08:00:00 8.3 5 Este 11 Sudeste 0 925 0.4 88
2019-04-18 07:00:00 8.3 6 Sudeste 10 Sudeste 0 924.8 -0.4 88
2019-04-18 06:00:00 8.5 2 Nordeste 8 Nordeste 0.2 924.4 -1.3 88
2019-04-18 05:00:00 8.5 4 Nordeste 8 Nordeste 0.1 924.6 -1.3 88
2019-04-18 04:00:00 8.4 2 Sudeste 12 Sudoeste 1.3 925.2 -0.3 88
2019-04-18 03:00:00 8.7 7 Oeste 21 Sudoeste 1.4 925.7 0.2 85
2019-04-18 02:00:00 9.5 12 Oeste 28 Noroeste 0.3 925.9 2 76
2019-04-18 01:00:00 10.4 6 Oeste 16 Sudoeste 0.4 925.5 2 82
2019-04-18 00:00:00 11.4 8 Sur 15 Sudoeste 0.2 925.5 2.7 80
2019-04-17 23:00:00 13.9 9 Este 16 Este 0 923.9 1.1 61
2019-04-17 22:00:00 14.5 6 Sudeste 35 Noroeste 0 923.5 1.5 54
2019-04-17 21:00:00 15.8 12 Oeste 37 Noroeste 0 922.8 1.9 49
2019-04-17 20:00:00 15 19 Oeste 30 Oeste 0.3 922.8 2.1 57
2019-04-17 19:00:00 16.5 16 Oeste 44 Oeste 0 922 0.2 42
2019-04-17 18:00:00 20.2 16 Sudoeste 26 Sudoeste 0 920.9 -2 32
2019-04-17 17:00:00 20.7 11 Sur 20 Sudeste 0 920.7 -3.1 33
2019-04-17 16:00:00 19.6 10 Sudeste 25 Sudeste 0 921.8 -3.5 36
2019-04-17 15:00:00 19 11 Sudeste 26 Sudeste 0 922.9 -2.4 38
2019-04-17 14:00:00 17.8 14 Sudeste 28 Este 0 923.8 -2.2 42
2019-04-17 13:00:00 16.4 14 Este 31 Este 0 925.3 -0.2 48
2019-04-17 12:00:00 15.1 16 Este 28 Este 0 925.3 -0.9 51
2019-04-17 11:00:00 13.4 13 Este 27 Este 0 926 -0.3 58
2019-04-17 10:00:00 12 13 Este 26 Nordeste 0 925.5 -0.4 64
2019-04-17 09:00:00 10.7 10 Este 22 Este 0 926.2 0.4 69
2019-04-17 08:00:00 9.5 9 Este 17 Este 0 926.3 0.1 73
2019-04-17 07:00:00 9.7 9 Este 21 Nordeste 0 925.9 -0.6 72
2019-04-17 06:00:00 9.8 8 Este 19 Este 0 925.8 -0.7 73
2019-04-17 05:00:00 10.7 9 Este 19 Nordeste 0 926.2 -0.6 69
2019-04-17 04:00:00 11.2 9 Nordeste 18 Nordeste 0 926.5 -0.4 67
2019-04-17 03:00:00 12.1 10 Este 20 Este 0 926.5 0.4 63
2019-04-17 02:00:00 12.9 8 Nordeste 27 Este 0 926.8 0.7 57
2019-04-17 01:00:00 13.8 8 Este 23 Sudeste 0 926.9 0.6 42
2019-04-17 00:00:00 15.6 8 Este 16 Este 0 926.1 -0.1 28
2019-04-16 23:00:00 15.6 8 Nordeste 16 Nordeste 0 926.1 -0.1 28
2019-04-16 22:00:00 14.9 7 Nordeste 14 Nordeste 0 926.3 0 29
2019-04-16 21:00:00 16.7 5 Este 15 Sudeste 0 926.2 -0.6 26
2019-04-16 20:00:00 18.3 9 Sudeste 22 Sur 0 926.2 -1.5 25
2019-04-16 19:00:00 19 9 Sudeste 22 Este 0 926.3 -2.1 26
2019-04-16 18:00:00 19.2 12 Sur 22 Sur 0 926.8 -2.4 25
2019-04-16 17:00:00 19 5 Sur 22 Sudoeste 0 927.7 -2 25
2019-04-16 16:00:00 18.1 11 Sur 29 Sudeste 0 928.4 -1.6 26
2019-04-16 15:00:00 18.5 11 Sur 26 Sudoeste 0 929.2 -1.3 29
2019-04-16 14:00:00 17.3 7 Sudoeste 23 Sur 0 929.7 -0.8 34
2019-04-16 13:00:00 16.5 10 Sur 19 Sudoeste 0 930 -0.5 37
2019-04-16 12:00:00 14.7 8 Sur 21 Sur 0 930.5 0.1 42
2019-04-16 11:00:00 13.4 6 Sur 15 Sur 0 930.5 0.5 47
2019-04-16 10:00:00 12.6 4 Sudoeste 8 Sur 0 930.5 0.5 52
2019-04-16 09:00:00 9.4 0 Calma 5 Este 0 930.4 0.6 65
2019-04-16 08:00:00 6 0 Calma 5 Nordeste 0 930 0.1 78
2019-04-16 07:00:00 5.5 0 Calma 5 Este 0 930 -0.4 77
2019-04-16 06:00:00 6.9 2 Sur 23 Norte 0 929.8 0.1 69
2019-04-16 05:00:00 10.3 12 Norte 23 Norte 0 929.9 0.6 58
2019-04-16 04:00:00 10 13 Norte 24 Nordeste 0 930.4 1 63
2019-04-16 03:00:00 10.3 11 Norte 24 Noroeste 0 929.7 0.5 62
2019-04-16 02:00:00 10.4 9 Norte 22 Oeste 0 929.3 0.9 60
2019-04-16 01:00:00 10.7 8 Noroeste 24 Noroeste 0 929.4 2.2 57
2019-04-16 00:00:00 11.2 13 Noroeste 35 Noroeste 0 929.2 2.4 56
2019-04-15 23:00:00 11.4 8 Norte 57 Norte 0 928.4 2.5 52
2019-04-15 22:00:00 11.8 11 Norte 33 Noroeste 0 927.2 2.7 48
2019-04-15 21:00:00 12.3 8 Norte 32 Noroeste 0 926.8 2.9 48
2019-04-15 20:00:00 14 13 Norte 41 Sudoeste 0 925.9 2.6 44
2019-04-15 19:00:00 17.7 17 Sudoeste 39 Sudoeste 0 924.5 1.1 34
2019-04-15 18:00:00 19.9 16 Oeste 40 Noroeste 0 923.9 0.1 33
2019-04-15 17:00:00 19.9 14 Oeste 35 Sudoeste 0 923.3 -1 35
2019-04-15 16:00:00 20.7 15 Oeste 32 Sudoeste 0 923.4 -1.5 38
2019-04-15 15:00:00 20.3 21 Sudoeste 38 Sur 0 923.8 -1.6 33
2019-04-15 14:00:00 19.9 12 Sudoeste 29 Sudoeste 0 924.3 -1.7 42
2019-04-15 13:00:00 20.2 12 Sur 22 Sur 0 924.9 -0.9 46
2019-04-15 12:00:00 17.4 7 Sudeste 13 Sudeste 0 925.4 -0.4 56
2019-04-15 11:00:00 16.1 2 Sudeste 13 Este 0 926 -0.3 63
2019-04-15 10:00:00 14.2 3 Este 12 Nordeste 0 925.8 -0.5 67
2019-04-15 09:00:00 13.4 6 Este 12 Este 0 925.8 -0.3 70
2019-04-15 08:00:00 12 0 Calma 7 Nordeste 0 926.3 -0.2 78
2019-04-15 07:00:00 10.9 0 Calma 6 Este 0 926.3 -0.5 80
2019-04-15 06:00:00 10.6 3 Nordeste 9 Nordeste 0 926.1 -1.2 78
2019-04-15 05:00:00 11.8 5 Nordeste 10 Nordeste 0 926.5 -0.9 75
2019-04-15 04:00:00 11.8 7 Nordeste 11 Nordeste 0 926.8 -0.8 73
2019-04-15 03:00:00 12 0 Calma 13 Nordeste 0 927.3 -0.6 70
2019-04-15 02:00:00 13 6 Nordeste 9 Este 0 927.4 -0.5 66
2019-04-15 01:00:00 13.4 4 Nordeste 7 Nordeste 0 927.6 0 63
2019-04-15 00:00:00 12.8 0 Calma 6 Sudeste 0 927.9 0.5 62
2019-04-14 23:00:00 13.7 2 Noroeste 6 Noroeste 0 927.9 0.7 57
2019-04-14 22:00:00 15.5 7 Sudoeste 24 Norte 0 927.6 0.8 49
2019-04-14 21:00:00 18.2 9 Norte 23 Norte 0 927.4 0.5 42
2019-04-14 20:00:00 19.4 6 Oeste 30 Sudeste 0 927.2 -0.1 43
2019-04-14 19:00:00 20.1 11 Sur 24 Sur 0 926.8 -1.1 42
2019-04-14 18:00:00 20.5 12 Sur 22 Sur 0 926.9 -1.6 41
2019-04-14 17:00:00 20.2 15 Sur 22 Sur 0 927.3 -1.5 41
2019-04-14 16:00:00 21.1 11 Sudoeste 26 Sur 0 927.9 -1.2 40
2019-04-14 15:00:00 20.5 15 Sudoeste 28 Sur 0 928.5 -1.2 38
2019-04-14 14:00:00 20.1 14 Sudoeste 26 Sudoeste 0 928.8 -0.9 40
2019-04-14 13:00:00 18.9 7 Noroeste 21 Oeste 0 929.1 -0.5 41
2019-04-14 12:00:00 17.5 10 Noroeste 22 Oeste 0 929.7 0.2 46
2019-04-14 11:00:00 16.2 11 Noroeste 27 Oeste 0 929.7 0.3 52
2019-04-14 10:00:00 14.6 8 Noroeste 19 Noroeste 0 929.6 0.8 57
2019-04-14 09:00:00 13.8 11 Norte 32 Norte 0 929.5 0.5 59
2019-04-14 08:00:00 13.2 13 Norte 37 Norte 0 929.4 -0.1 62
2019-04-14 07:00:00 13.3 17 Norte 40 Norte 0 928.8 -0.7 60
2019-04-14 06:00:00 13.4 13 Norte 33 Norte 0 929 -1 57
2019-04-14 05:00:00 13.3 13 Norte 36 Norte 0 929.5 -0.7 57
2019-04-14 04:00:00 13.7 12 Norte 28 Nordeste 0 929.5 -0.6 49
2019-04-14 03:00:00 14 10 Noroeste 23 Noroeste 0 930 -0.6 41
2019-04-14 02:00:00 14.5 10 Noroeste 29 Noroeste 0 930.2 -0.4 39
2019-04-14 01:00:00 14.7 16 Norte 37 Noroeste 0 930.1 0 36
2019-04-14 00:00:00 15.4 9 Noroeste 21 Norte 0 930.6 1 29
2019-04-13 23:00:00 12 3 Noroeste 9 Norte 0 930.6 1.5 36
2019-04-13 22:00:00 11.8 0 Calma 6 Nordeste 0 930.1 1.3 35
2019-04-13 21:00:00 15.1 0 Calma 18 Oeste 0 929.6 0.8 27
2019-04-13 20:00:00 17.7 10 Oeste 20 Sudoeste 0 929.1 0.1 23
2019-04-13 19:00:00 19.7 11 Sudoeste 22 Sudoeste 0 928.8 -0.8 20
2019-04-13 18:00:00 19.9 9 Sudoeste 27 Sudoeste 0 928.8 -1.1 18
2019-04-13 17:00:00 19.5 11 Sudoeste 32 Oeste 0 929 -1.3 17
2019-04-13 16:00:00 18.8 12 Sur 20 Sudeste 0 929.6 -1.2 16
2019-04-13 15:00:00 19 4 Sudoeste 20 Sur 0 929.9 -1.2 16
2019-04-13 14:00:00 17.5 4 Sudoeste 18 Sudoeste 0 930.3 -1 17
2019-04-13 13:00:00 17.4 6 Sur 15 Sur 0 930.8 0 22
2019-04-13 12:00:00 15.9 4 Sudeste 15 Sudoeste 0 931.1 0.1 24
2019-04-13 11:00:00 14.7 5 Sudoeste 11 Sur 0 931.3 0.9 27
2019-04-13 10:00:00 13.3 3 Sudeste 13 Norte 0 930.8 0.8 29
2019-04-13 09:00:00 11.1 0 Calma 31 Norte 0 931 1.3 31
2019-04-13 08:00:00 10 17 Norte 33 Norte 0 930.4 0.7 32
2019-04-13 07:00:00 10 17 Norte 31 Norte 0 930 0.4 32
2019-04-13 06:00:00 9.8 16 Norte 31 Norte 0 929.7 -0.5 32
2019-04-13 05:00:00 10.3 12 Norte 34 Noroeste 0 929.7 -0.7 33
2019-04-13 04:00:00 10.3 15 Noroeste 26 Norte 0 929.6 -0.7 33
2019-04-13 03:00:00 10.5 9 Norte 30 Norte 0 930.2 -0.1 33
2019-04-13 02:00:00 10.6 14 Norte 24 Norte 0 930.4 0.3 33
2019-04-13 01:00:00 10.1 4 Noroeste 30 Norte 0 930.3 0.9 31
2019-04-13 00:00:00 11.6 15 Norte 36 Norte 0 930.3 1.4 30
2019-04-12 23:00:00 11.8 14 Norte 35 Norte 0 930.1 1.5 30
2019-04-12 22:00:00 12.3 14 Norte 30 Noroeste 0 929.4 0.6 30
2019-04-12 21:00:00 13.1 12 Norte 25 Norte 0 928.9 0.3 30
2019-04-12 20:00:00 14.2 12 Norte 29 Norte 0 928.6 0 28
2019-04-12 19:00:00 15.8 12 Norte 30 Norte 0 928.8 -0.3 26
2019-04-12 18:00:00 16.3 12 Nordeste 31 Nordeste 0 928.6 -0.9 24
2019-04-12 17:00:00 16.4 10 Nordeste 36 Nordeste 0 928.6 -1.3 26
2019-04-12 16:00:00 15.4 16 Nordeste 36 Nordeste 0 929.1 -1 29
2019-04-12 15:00:00 15.3 12 Norte 33 Nordeste 0 929.5 -1.1 30
2019-04-12 14:00:00 14.7 10 Norte 35 Norte 0 929.9 -0.9 31
2019-04-12 13:00:00 14.3 10 Nordeste 35 Nordeste 0 930.1 -0.6 33
2019-04-12 12:00:00 12.3 13 Nordeste 32 Nordeste 0 930.6 -0.1 37
2019-04-12 11:00:00 11.9 7 Norte 35 Norte 0 930.8 0.1 41
2019-04-12 10:00:00 10.2 9 Norte 22 Norte 0 930.7 0.3 45
2019-04-12 09:00:00 8.3 11 Noroeste 19 Noroeste 0 930.7 0.5 50
2019-04-12 08:00:00 2.6 0 Calma 4 Nordeste 0 930.7 0.4 71
2019-04-12 07:00:00 3.7 0 Calma 13 Norte 0 930.4 0 64
2019-04-12 06:00:00 5.1 8 Nordeste 14 Nordeste 0 930.2 -0.2 61
2019-04-12 05:00:00 3.3 2 Sudeste 6 Norte 0 930.3 -0.4 66
2019-04-12 04:00:00 4.6 2 Sudeste 15 Noroeste 0 930.4 -0.2 57
2019-04-12 03:00:00 9.3 7 Norte 17 Norte 0 930.4 -0.3 39
2019-04-12 02:00:00 9.4 9 Norte 23 Norte 0 930.7 -0.1 38
2019-04-12 01:00:00 9.6 11 Norte 23 Norte 0 930.6 -0.1 37
2019-04-12 00:00:00 9.9 11 Norte 26 Norte 0 930.7 0.6 37
2019-04-11 23:00:00 9.4 15 Norte 26 Norte 0 930.8 1.1 38
2019-04-11 22:00:00 9.7 10 Norte 22 Nordeste 0 930.7 1.5 37
2019-04-11 21:00:00 10.8 10 Norte 20 Norte 0 930.1 0.6 33
2019-04-11 20:00:00 11.6 8 Nordeste 30 Norte 0 929.7 0.4 30
2019-04-11 19:00:00 12.9 13 Nordeste 31 Norte 0 929.2 -0.1 29
2019-04-11 18:00:00 13.4 11 Nordeste 30 Nordeste 0 929.5 -0.1 29
2019-04-11 17:00:00 13.1 12 Norte 33 Nordeste 0 929.3 -0.4 29
2019-04-11 16:00:00 13.8 10 Nordeste 38 Nordeste 0 929.3 -0.9 29
2019-04-11 15:00:00 14.2 13 Nordeste 35 Nordeste 0 929.6 -0.9 29
2019-04-11 14:00:00 14.2 11 Nordeste 30 Nordeste 0 929.7 -0.8 32
2019-04-11 13:00:00 12 7 Nordeste 27 Noroeste 0 930.2 -0.2 35
2019-04-11 12:00:00 12.1 8 Nordeste 18 Nordeste 0 930.5 0.3 35
2019-04-11 11:00:00 11.2 4 Sur 18 Norte 0 930.5 0.8 38
2019-04-11 10:00:00 8.8 11 Noroeste 25 Noroeste 0 930.4 0.7 47
2019-04-11 09:00:00 7.2 13 Noroeste 27 Noroeste 0 930.2 0.5 53
2019-04-11 08:00:00 5.5 19 Noroeste 31 Noroeste 0 929.7 0.2 59
2019-04-11 07:00:00 4.9 19 Norte 35 Norte 0 929.7 0.6 64
2019-04-11 06:00:00 5.1 6 Noroeste 27 Norte 0 929.7 0.6 64
2019-04-11 05:00:00 5.4 6 Noroeste 24 Noroeste 0 929.5 0.2 66
2019-04-11 04:00:00 6.6 13 Noroeste 27 Norte 0 929.1 0.4 60
2019-04-11 03:00:00 6.9 13 Noroeste 29 Norte 0 929.1 0.2 60
2019-04-11 02:00:00 6.7 5 Norte 43 Norte 0 929.3 0.9 63
2019-04-11 01:00:00 7.5 24 Norte 50 Norte 0 928.7 0.5 61
2019-04-11 00:00:00 7.9 15 Norte 42 Noroeste 0 928.9 1.2 61
2019-04-10 23:00:00 6.6 21 Noroeste 32 Norte 0 928.4 1.5 66
2019-04-10 22:00:00 6.8 15 Noroeste 25 Norte 0 928.2 1.8 66
2019-04-10 21:00:00 7.4 14 Norte 25 Norte 0 927.7 1.4 63
2019-04-10 20:00:00 8 6 Noroeste 28 Noroeste 0 926.9 1.1 63
2019-04-10 19:00:00 8.4 11 Noroeste 23 Norte 0.3 926.4 0.4 64
2019-04-10 18:00:00 7.8 6 Norte 36 Noroeste 0.4 926.3 0.4 66
2019-04-10 17:00:00 9.6 5 Este 29 Nordeste 0.7 925.8 -0.4 59
2019-04-10 16:00:00 8.1 10 Norte 29 Noroeste 2 926 -0.4 58
2019-04-10 15:00:00 10.7 12 Noroeste 36 Noroeste 0 925.9 -0.6 48
2019-04-10 14:00:00 10.2 9 Norte 29 Norte 0 926.2 -0.3 47
2019-04-10 13:00:00 8.7 11 Norte 32 Noroeste 0 926.4 0.5 53
2019-04-10 12:00:00 9.1 13 Noroeste 39 Noroeste 0 926.5 0.7 50
2019-04-10 11:00:00 8.1 13 Noroeste 39 Norte 0 926.5 0.7 55
2019-04-10 10:00:00 8.4 16 Noroeste 38 Noroeste 0 925.9 0.3 50
2019-04-10 09:00:00 7.2 8 Norte 28 Oeste 0 925.8 0.4 56
2019-04-10 08:00:00 6.5 10 Oeste 32 Noroeste 0 925.8 0.4 60
2019-04-10 07:00:00 6.7 14 Oeste 30 Oeste 0 925.6 -0.1 56
2019-04-10 06:00:00 6.8 10 Noroeste 30 Norte 0 925.4 -0.3 56
2019-04-10 05:00:00 6.9 16 Noroeste 35 Norte 0 925.4 -0.6 54
2019-04-10 04:00:00 6.5 16 Noroeste 33 Norte 0 925.7 -0.2 58
2019-04-10 03:00:00 7 7 Noroeste 31 Norte 0 925.7 -0.2 58
2019-04-10 02:00:00 7.1 7 Oeste 34 Oeste 0 926 -0.2 59
2019-04-10 01:00:00 5.7 2 Oeste 26 Norte 0 925.9 0.4 74
2019-04-10 00:00:00 6.3 3 Oeste 20 Norte 0 925.9 0.8 71
2019-04-09 23:00:00 5.8 5 Noroeste 40 Noroeste 0.7 926.2 1.9 74
2019-04-09 22:00:00 7.9 7 Noroeste 19 Norte 0 925.5 1 54
2019-04-09 21:00:00 8.1 3 Oeste 26 Norte 0 925.1 1.6 53
2019-04-09 20:00:00 8.1 12 Noroeste 39 Noroeste 0.4 924.3 0.5 54
2019-04-09 19:00:00 10.4 14 Noroeste 40 Noroeste 0 924.5 0.6 37
2019-04-09 18:00:00 11.4 11 Noroeste 43 Norte 0 923.5 -1 31
2019-04-09 17:00:00 11.4 13 Noroeste 38 Noroeste 0 923.8 -1.3 29
2019-04-09 16:00:00 11 19 Oeste 45 Oeste 0 923.9 -1.1 31
2019-04-09 15:00:00 9.7 9 Noroeste 26 Oeste 0 924.5 -0.6 53
2019-04-09 14:00:00 6.4 9 Noroeste 32 Sudoeste 2 925.1 0.1 72
2019-04-09 13:00:00 7.2 14 Oeste 36 Sudoeste 0 925 -0.5 70
2019-04-09 12:00:00 7.7 13 Oeste 28 Oeste 0 925.1 -0.4 63
2019-04-09 11:00:00 6.9 12 Sudoeste 30 Oeste 0.1 925 -0.4 73
2019-04-09 10:00:00 5.8 10 Sudoeste 23 Oeste 0 925.5 0.2 77
2019-04-09 09:00:00 5.5 2 Sudoeste 15 Oeste 0 925.5 0 81
2019-04-09 08:00:00 4.4 2 Sur 11 Sur 0 925.4 0.1 87
2019-04-09 07:00:00 3.7 4 Sur 27 Oeste 0 925.3 -0.3 87
2019-04-09 06:00:00 3.2 0 Calma 7 Sudeste 0 925.5 0 88
2019-04-09 05:00:00 2.6 0 Calma 5 Noroeste 0 925.3 -0.4 87
2019-04-09 04:00:00 2.3 0 Calma 7 Sudoeste 0 925.6 0 86
2019-04-09 03:00:00 2.9 0 Calma 9 Oeste 0 925.5 0.1 84
2019-04-09 02:00:00 3.9 0 Calma 6 Sudoeste 0 925.7 0.4 79
2019-04-09 01:00:00 4.8 3 Oeste 20 Norte 0 925.6 0.1 73
2019-04-09 00:00:00 7.4 9 Noroeste 27 Noroeste 0 925.4 1 60
2019-04-08 23:00:00 7.3 13 Norte 33 Nordeste 0.2 925.3 1.4 64
2019-04-08 22:00:00 6.7 12 Norte 39 Noroeste 0.4 925.5 1.7 72
2019-04-08 21:00:00 9.8 10 Norte 24 Norte 0 924.4 1.1 47
2019-04-08 20:00:00 10.2 5 Noroeste 20 Norte 0 923.9 0.7 46
2019-04-08 19:00:00 11.3 9 Norte 32 Sudoeste 0 923.8 0.1 42
2019-04-08 18:00:00 13.2 13 Oeste 31 Oeste 0 923.3 -1.3 36
2019-04-08 17:00:00 14 13 Sudoeste 35 Oeste 0 923.2 -1.7 35
2019-04-08 16:00:00 14 13 Sudoeste 37 Oeste 0 923.7 -1.5 38
2019-04-08 15:00:00 13.7 14 Oeste 39 Oeste 0 924.6 -0.7 39
2019-04-08 14:00:00 12.4 13 Sudoeste 30 Sudoeste 0 924.9 -0.3 50
2019-04-08 13:00:00 9.9 10 Oeste 28 Oeste 0.4 925.2 0.3 69
2019-04-08 12:00:00 9.2 7 Oeste 18 Sudoeste 1.4 925.3 0.5 79
2019-04-08 11:00:00 9.1 8 Oeste 14 Sudoeste 0 925.2 0.5 85
2019-04-08 10:00:00 8.3 7 Sudoeste 16 Sudoeste 0 924.9 0.8 89
2019-04-08 09:00:00 7.8 8 Sudoeste 13 Sur 0.3 924.8 0.5 89
2019-04-08 08:00:00 7.4 7 Sudoeste 18 Sudoeste 0.2 924.7 0.1 89
2019-04-08 07:00:00 7 6 Sur 9 Sur 0.2 924.1 -0.5 89
2019-04-08 06:00:00 7 2 Sur 6 Sur 0.6 924.3 -0.4 89
2019-04-08 05:00:00 6.8 0 Calma 5 Este 0.2 924.6 -0.6 89
2019-04-08 04:00:00 6.6 3 Este 6 Este 0 924.6 -1 89
2019-04-08 03:00:00 6.5 0 Calma 8 Nordeste 0.1 924.7 -1 89
2019-04-08 02:00:00 6.5 0 Calma 7 Este 0.3 925.2 -0.5 89
2019-04-08 01:00:00 6.6 3 Este 7 Este 0 925.6 -0.1 88
2019-04-08 00:00:00 6.7 4 Este 6 Este 0 925.7 0.4 87
2019-04-07 23:00:00 6.9 0 Calma 5 Sudoeste 0.1 925.7 0.3 86
2019-04-07 22:00:00 6.9 3 Sudoeste 6 Sudoeste 0 925.7 0.8 85
2019-04-07 21:00:00 6.9 3 Sudoeste 8 Sur 0 925.3 0.7 84
2019-04-07 20:00:00 7 5 Oeste 17 Oeste 0.3 925.4 1.2 78
2019-04-07 19:00:00 7.3 9 Oeste 21 Oeste 0.2 924.9 1.1 73
2019-04-07 18:00:00 8.9 10 Oeste 25 Sudoeste 0 924.6 0.8 58
2019-04-07 17:00:00 9.6 10 Oeste 27 Oeste 0 924.2 0.4 51
2019-04-07 16:00:00 10.7 10 Oeste 24 Oeste 0 923.8 0 39
2019-04-07 15:00:00 10.9 10 Oeste 23 Sudoeste 0 923.8 0.5 34
2019-04-07 14:00:00 11.1 6 Oeste 26 Norte 0 923.8 0.8 33
2019-04-07 13:00:00 9.8 9 Noroeste 36 Norte 0 923.8 1.1 36
2019-04-07 12:00:00 9.1 13 Noroeste 31 Noroeste 0 923.3 1 38
2019-04-07 11:00:00 7.8 15 Noroeste 36 Norte 0 923 1.6 44
2019-04-07 10:00:00 5.9 13 Noroeste 26 Oeste 0 922.7 2.1 53
2019-04-07 09:00:00 5.8 11 Oeste 25 Oeste 0 922.3 2.8 51
2019-04-07 08:00:00 4.6 3 Oeste 23 Oeste 0 921.4 2.3 56
2019-04-07 07:00:00 4.4 5 Noroeste 26 Norte 0 920.6 1.8 57
2019-04-07 06:00:00 4.4 6 Oeste 25 Oeste 0 919.5 0.7 54
2019-04-07 05:00:00 4.5 10 Oeste 27 Oeste 0 919.1 0.4 55
2019-04-07 04:00:00 4.5 14 Norte 35 Nordeste 0 918.8 0.2 61
2019-04-07 03:00:00 3.9 8 Oeste 18 Noroeste 0 918.8 0.5 74
2019-04-07 02:00:00 4.4 7 Oeste 17 Oeste 0 918.7 0.9 67
2019-04-07 01:00:00 4.1 6 Oeste 18 Oeste 0 918.6 1.5 70
2019-04-07 00:00:00 4.1 5 Oeste 25 Sudoeste 0 918.3 1.5 67
2019-04-06 23:00:00 4 8 Sudoeste 26 Norte 0 917.8 1.9 66
2019-04-06 22:00:00 6.2 12 Oeste 30 Oeste 0 917.1 1.7 46
2019-04-06 21:00:00 5.6 14 Oeste 30 Oeste 0 916.8 2.2 55
2019-04-06 20:00:00 7.2 12 Noroeste 30 Sudoeste 0 915.9 1.4 42
2019-04-06 19:00:00 7.7 10 Sudoeste 34 Oeste 0 915.4 1.2 48
2019-04-06 18:00:00 7.8 17 Sudoeste 40 Sudoeste 0 914.6 -0.3 49
2019-04-06 17:00:00 7.5 21 Sudoeste 46 Oeste 0 914.5 -0.4 52
2019-04-06 16:00:00 9.6 21 Sudoeste 44 Oeste 0 914.2 -0.9 48
2019-04-06 15:00:00 6.5 21 Oeste 46 Sudoeste 0 914.9 -0.6 60
2019-04-06 14:00:00 7.5 19 Oeste 40 Sudoeste 0.1 914.9 -0.7 62
2019-04-06 13:00:00 6.8 15 Sudoeste 33 Sudoeste 0 915.1 -0.2 66
2019-04-06 12:00:00 5.1 10 Oeste 24 Sudoeste 0 915.5 0.3 77
2019-04-06 11:00:00 4 12 Sudoeste 25 Oeste 0 915.6 0.5 77
2019-04-06 10:00:00 3.7 14 Sudoeste 26 Sudoeste 0 915.3 0.4 78
2019-04-06 09:00:00 2.8 12 Oeste 30 Oeste 0 915.2 0.8 80
2019-04-06 08:00:00 2 10 Oeste 25 Oeste 0 915.1 0.6 84
2019-04-06 07:00:00 1.6 0 Calma 15 Oeste 0 914.9 0.5 86
2019-04-06 06:00:00 1.7 8 Oeste 15 Noroeste 0 914.4 -0.2 86
2019-04-06 05:00:00 0.4 0 Calma 11 Oeste 0 914.5 0 85
2019-04-06 04:00:00 2 6 Oeste 13 Oeste 0 914.4 -0.1 80
2019-04-06 03:00:00 3 6 Oeste 14 Noroeste 0 914.6 0.4 71
2019-04-06 02:00:00 3.4 5 Oeste 11 Oeste 0 914.5 0.4 78
2019-04-06 01:00:00 3.3 6 Oeste 8 Noroeste 0 914.5 0.9 86
2019-04-06 00:00:00 2.7 5 Noroeste 17 Oeste 0 914.2 1.5 83
2019-04-05 23:00:00 3.6 7 Oeste 23 Noroeste 0 914.1 1.8 77
2019-04-05 22:00:00 4.5 9 Oeste 25 Oeste 0 913.6 1.5 66
2019-04-05 21:00:00 4.1 5 Oeste 16 Noroeste 0 912.7 0.6 71
2019-04-05 20:00:00 4.8 7 Oeste 15 Oeste 0 912.3 0.6 67
2019-04-05 19:00:00 5 5 Noroeste 21 Noroeste 0.1 912.1 1.1 70
2019-04-05 18:00:00 2.6 10 Noroeste 44 Norte 2.9 912.1 0.9 84
2019-04-05 17:00:00 3.3 16 Noroeste 39 Oeste 0.1 911.7 0.1 77
2019-04-05 16:00:00 6 8 Sudoeste 17 Sur 0.6 911 -0.9 75
2019-04-05 15:00:00 5.7 4 Noroeste 15 Noroeste 0 911.2 -0.4 72
2019-04-05 14:00:00 3.2 9 Nordeste 25 Norte 2.4 911.6 0 83
2019-04-05 13:00:00 3.7 13 Oeste 43 Sudoeste 4.7 911.9 0.1 83
2019-04-05 12:00:00 5.5 10 Sur 19 Sur 0.1 911.6 -0.2 84
2019-04-05 11:00:00 4.6 8 Sur 17 Sudoeste 0.4 911.6 -0.2 90
2019-04-05 10:00:00 4.2 10 Sudoeste 19 Sudoeste 0.9 911.8 -0.1 91
2019-04-05 09:00:00 4.2 12 Sudoeste 19 Sur 0.2 911.8 0.1 90
2019-04-05 08:00:00 4 7 Sudoeste 14 Sudoeste 0.2 911.8 -0.3 91
2019-04-05 07:00:00 3.9 7 Sudoeste 17 Sudoeste 0 911.9 -0.5 88
2019-04-05 06:00:00 4.1 9 Sudoeste 34 Noroeste 0 911.7 -1.2 82
2019-04-05 05:00:00 4.1 16 Sudoeste 39 Oeste 0 912.1 -1.1 81
2019-04-05 04:00:00 4.2 13 Oeste 37 Sudoeste 0 912.4 -0.8 80
2019-04-05 03:00:00 4.4 17 Oeste 35 Sudoeste 0 912.9 0.2 76
2019-04-05 02:00:00 5.1 12 Oeste 40 Oeste 0 913.2 0.3 71
2019-04-05 01:00:00 6.6 15 Oeste 35 Oeste 0 913.2 0.2 53
2019-04-05 00:00:00 9.2 13 Sudoeste 26 Oeste 0 912.7 -0.3 32
2019-04-04 23:00:00 9.6 11 Sudoeste 21 Sudoeste 0 912.9 -0.1 33
2019-04-04 22:00:00 10 12 Sudoeste 23 Sudoeste 0 913 -0.1 31
2019-04-04 21:00:00 10.3 10 Sudoeste 26 Oeste 0 913 -0.5 30
2019-04-04 20:00:00 11 12 Oeste 29 Sudoeste 0 913 -0.7 27
2019-04-04 19:00:00 11.4 13 Oeste 27 Oeste 0 913.1 -1.7 26
2019-04-04 18:00:00 12.3 9 Oeste 28 Sudoeste 0 913.5 -2 26
2019-04-04 17:00:00 11.9 9 Sudoeste 36 Sudoeste 0 913.7 -2.6 26
2019-04-04 16:00:00 12.6 15 Sudoeste 34 Sudoeste 0 914.8 -2.3 26
2019-04-04 15:00:00 12.4 12 Sudoeste 28 Sur 0 915.5 -2.1 28
2019-04-04 14:00:00 11.1 8 Sudoeste 30 Oeste 0 916.3 -1.5 27
2019-04-04 13:00:00 9.4 6 Noroeste 24 Noroeste 0 917.1 -0.5 33
2019-04-04 12:00:00 7.8 8 Norte 26 Noroeste 0 917.6 -0.4 37
2019-04-04 11:00:00 5.7 11 Noroeste 42 Norte 0 917.8 0.2 44
2019-04-04 10:00:00 3.7 22 Noroeste 37 Noroeste 0 917.6 0.1 49
2019-04-04 09:00:00 2.4 9 Noroeste 20 Norte 0 918 0.7 54
2019-04-04 08:00:00 0.8 5 Noroeste 24 Nordeste 0 917.6 0.2 57
2019-04-04 07:00:00 0.9 5 Norte 27 Norte 0 917.5 0.1 56
2019-04-04 06:00:00 1.7 13 Norte 24 Norte 0 917.3 -0.7 54
2019-04-04 05:00:00 2 8 Noroeste 27 Noroeste 0 917.4 -0.6 52
2019-04-04 04:00:00 2.2 8 Noroeste 15 Noroeste 0 917.4 -0.7 51
2019-04-04 03:00:00 3 6 Norte 25 Noroeste 0 918 -0.2 46
2019-04-04 02:00:00 4.3 12 Norte 26 Noroeste 0 918 -0.3 43
2019-04-04 01:00:00 5.5 12 Nordeste 32 Nordeste 0 918.1 0.4 40
2019-04-04 00:00:00 6.6 12 Norte 42 Norte 0 918.2 1.3 36
2019-04-03 23:00:00 7.7 8 Norte 21 Noroeste 0 918.3 1.5 36
2019-04-03 22:00:00 8.2 8 Norte 25 Norte 0 917.7 0.8 35
2019-04-03 21:00:00 9.4 9 Norte 26 Noroeste 0 916.9 0.3 33
2019-04-03 20:00:00 10.2 11 Noroeste 33 Nordeste 0 916.8 -0.1 33
2019-04-03 19:00:00 11.1 19 Norte 41 Nordeste 0 916.9 -0.3 32
2019-04-03 18:00:00 12.4 14 Norte 54 Noroeste 0 916.6 -1.3 32
2019-04-03 17:00:00 12.6 20 Norte 51 Noroeste 0 916.9 -1.5 32
2019-04-03 16:00:00 11.5 20 Noroeste 50 Noroeste 0 917.2 -1.7 35
2019-04-03 15:00:00 11.2 20 Noroeste 46 Norte 0 917.9 -1.5 39
2019-04-03 14:00:00 10.8 12 Noroeste 41 Noroeste 0 918.4 -1.4 43
2019-04-03 13:00:00 11 16 Norte 37 Noroeste 0 918.9 -1.2 43
2019-04-03 12:00:00 11.1 13 Noroeste 29 Norte 0 919.4 -1.4 46
2019-04-03 11:00:00 10.7 18 Norte 35 Noroeste 0 919.8 -1.1 49
2019-04-03 10:00:00 9.4 12 Noroeste 30 Noroeste 0 920.1 -1.1 54
2019-04-03 09:00:00 8.7 13 Noroeste 25 Noroeste 0 920.8 -0.6 56
2019-04-03 08:00:00 8 12 Noroeste 23 Noroeste 0 920.9 -1 55
2019-04-03 07:00:00 8.3 8 Noroeste 23 Norte 0 921.2 -1.6 51
2019-04-03 06:00:00 8.7 8 Noroeste 20 Norte 0 921.4 -2.2 46
2019-04-03 05:00:00 9 8 Norte 26 Noroeste 0 921.9 -2.4 43
2019-04-03 04:00:00 9.6 10 Norte 28 Norte 0 922.8 -1.6 40
2019-04-03 03:00:00 10.4 9 Noroeste 26 Noroeste 0 923.6 -1.4 37
2019-04-03 02:00:00 11.7 10 Noroeste 25 Noroeste 0 924.3 -1.2 34
2019-04-03 01:00:00 12.3 8 Norte 21 Norte 0 924.4 -0.7 35
2019-04-03 00:00:00 12.3 8 Noroeste 19 Norte 0 925 0.3 38
2019-04-02 23:00:00 11 4 Noroeste 14 Noroeste 0 925.5 0.7 58
2019-04-02 22:00:00 11.2 5 Noroeste 12 Noroeste 0 925.1 0.3 59
2019-04-02 21:00:00 12.8 9 Noroeste 18 Oeste 0 924.7 -0.2 52
2019-04-02 20:00:00 13.7 6 Oeste 13 Oeste 0 924.8 -1 49
2019-04-02 19:00:00 14.8 5 Oeste 15 Oeste 0 924.8 -1.5 45
2019-04-02 18:00:00 15.4 4 Oeste 14 Oeste 0 924.9 -1.5 45
2019-04-02 17:00:00 13.7 4 Oeste 11 Norte 0 925.8 -1 49
2019-04-02 16:00:00 12 5 Noroeste 26 Norte 0 926.3 -0.7 59
2019-04-02 15:00:00 14.6 0 Calma 8 Oeste 0 926.4 -1.2 54
2019-04-02 14:00:00 11.3 2 Noroeste 28 Norte 3.1 926.8 -0.9 75
2019-04-02 13:00:00 17.4 5 Sur 23 Oeste 0 927 -0.7 37
2019-04-02 12:00:00 16.1 3 Noroeste 30 Nordeste 0 927.6 0.5 43
2019-04-02 11:00:00 12.9 8 Noroeste 18 Oeste 0 927.7 0.8 50
2019-04-02 10:00:00 10.3 3 Sudeste 11 Sudeste 0 927.7 1.1 62
2019-04-02 09:00:00 10.4 5 Noroeste -- -- -- 927.1 0.4 57
2019-04-02 08:00:00 10.1 3 Nordeste 19 Nordeste 0 926.9 -0.1 55
2019-04-02 07:00:00 10.3 6 Norte 16 Noroeste 0 926.6 -0.5 55
2019-04-02 06:00:00 9.6 6 Noroeste 14 Noroeste 0 926.7 -0.6 60
2019-04-02 05:00:00 10.4 5 Noroeste 14 Norte 0 927 -0.2 60
2019-04-02 04:00:00 6.6 2 Sudoeste 6 Sudoeste 0 927.1 -0.3 73
2019-04-02 03:00:00 7.4 0 Calma 4 Nordeste 0 927.3 -0.1 70
2019-04-02 02:00:00 8.3 0 Calma 6 Norte 0 927.2 0.2 66
2019-04-02 01:00:00 9.2 4 Nordeste 5 Nordeste 0 927.4 0.8 63
2019-04-02 00:00:00 8.8 0 Calma 6 Nordeste 0 927.4 1.7 63
2019-04-01 23:00:00 9.6 0 Calma 10 Oeste 0 927 1.6 58
2019-04-01 22:00:00 10.9 4 Noroeste 10 Oeste 0 926.6 1.6 53
2019-04-01 21:00:00 12.5 6 Norte 15 Norte 0 925.7 1 48
2019-04-01 20:00:00 13.1 6 Norte 16 Noroeste 0 925.4 0.7 48
2019-04-01 19:00:00 13.1 10 Noroeste 23 Noroeste 0 925 0.1 49
2019-04-01 18:00:00 14.8 7 Sudoeste 15 Sudeste 0 924.7 -0.9 39
2019-04-01 17:00:00 15 6 Sudeste 28 Sudeste 0 924.7 -1.5 42
2019-04-01 16:00:00 15.8 2 Sudoeste 18 Sudeste 0 924.9 -1.6 41
2019-04-01 15:00:00 13.4 3 Este 16 Sudeste 0 925.6 -0.8 46
2019-04-01 14:00:00 12.6 6 Sur 12 Sudeste 0 926.2 -0.1 51
2019-04-01 13:00:00 12.1 0 Calma 11 Sudeste 0 926.5 0.7 54
2019-04-01 12:00:00 11.8 6 Sudeste 13 Este 0 926.4 0.7 59
2019-04-01 11:00:00 10.9 6 Sudeste 11 Sudeste 0 926.3 1 63
2019-04-01 10:00:00 10.2 0 Calma 7 Nordeste 0 925.8 0.6 71
2019-04-01 09:00:00 8.3 4 Nordeste 7 Este 0 925.7 0.7 81
2019-04-01 08:00:00 7.9 2 Este 9 Nordeste 0 925.3 0.1 82
2019-04-01 07:00:00 8.2 5 Nordeste 9 Nordeste 0 925.2 0 81
2019-04-01 06:00:00 8.1 4 Este 10 Este 0 925 -0.5 82
2019-04-01 05:00:00 8.3 5 Este 9 Este 0 925.2 -0.5 78
2019-04-01 04:00:00 8.6 3 Este 10 Nordeste 0 925.2 -0.6 78
2019-04-01 03:00:00 8.6 3 Nordeste 9 Nordeste 0 925.5 -0.2 78
2019-04-01 02:00:00 8.4 4 Este 12 Norte 0 925.7 0.1 81
2019-04-01 01:00:00 8.3 5 Nordeste 15 Este 0 925.8 0.6 85
2019-04-01 00:00:00 8.9 9 Este 15 Este 0 925.7 1 80
2019-03-31 23:00:00 9.6 5 Este 11 Este 0 925.6 1.1 75
2019-03-31 22:00:00 9.6 7 Este 13 Este 0 925.2 0.9 72
2019-03-31 21:00:00 9.8 6 Este 18 Este 0 924.7 0.4 71
2019-03-31 20:00:00 10.1 10 Este 22 Este 0 924.5 0 67
2019-03-31 19:00:00 10.7 14 Este 25 Este 0 924.3 -0.7 63
2019-03-31 18:00:00 11.1 10 Este 23 Sudeste 0 924.3 -1.4 61
2019-03-31 17:00:00 11.1 11 Este 22 Sudeste 0 924.5 -1.6 63
2019-03-31 16:00:00 10.1 13 Este 22 Este 0 925 -1.2 65
2019-03-31 15:00:00 10.8 11 Sudeste 23 Sudeste 0 925.7 -0.8 63
2019-03-31 14:00:00 11.2 12 Este 19 Este 0 926.1 -0.3 52
2019-03-31 13:00:00 11.3 10 Sudeste 19 Sudeste 0 926.2 -0.2 51
2019-03-31 12:00:00 11.2 9 Sudeste 20 Este 0 926.5 0.1 51
2019-03-31 11:00:00 11.1 6 Sudeste 14 Sudeste 0 926.4 0.1 54
2019-03-31 10:00:00 9.5 5 Este 13 Nordeste 0 926.4 0.5 60
2019-03-31 09:00:00 7.8 5 Nordeste 13 Nordeste 0 926.4 0.3 66
2019-03-31 08:00:00 6.6 4 Nordeste 7 Nordeste 0 926.3 -0.6 72
2019-03-31 07:00:00 6.4 3 Nordeste 4 Nordeste 0 925.9 -1.6 72
2019-03-31 06:00:00 6.3 0 Calma 8 Nordeste 0 926.1 -1.8 66
2019-03-31 05:00:00 7.6 5 Nordeste 10 Nordeste 0 926.9 -1.3 60
2019-03-31 03:00:00 9.1 5 Nordeste 13 Nordeste 0 927.9 0 54
2019-03-31 01:00:00 9.7 4 Nordeste 16 Sudeste 0 928.2 0 52
2019-03-31 00:00:00 8.6 3 Nordeste 23 Este 0 928.3 0.2 44
2019-03-30 23:00:00 8.3 0 Calma 7 Nordeste 0 927.9 0.1 42
2019-03-30 22:00:00 8.6 3 Nordeste 8 Nordeste 0 928.2 0.5 40
2019-03-30 21:00:00 9.6 2 Nordeste 8 Nordeste 0 928.1 0.5 36
2019-03-30 20:00:00 12.7 0 Calma 6 Sur 0 927.8 0.5 33
2019-03-30 19:00:00 15.3 5 Sur 18 Sudeste 0 927.7 -0.3 29
2019-03-30 18:00:00 16.3 7 Sur 17 Sudeste 0 927.6 -1.2 27
2019-03-30 17:00:00 16.9 7 Sudeste 18 Sur 0 927.3 -2.7 27
2019-03-30 16:00:00 17.2 5 Sur 25 Sudeste 0 928 -2.8 29
2019-03-30 15:00:00 16.2 9 Sudeste 22 Sudeste 0 928.8 -3 31
2019-03-30 14:00:00 15.5 7 Sudeste 23 Sudeste 0 930 -2.5 34
2019-03-30 13:00:00 14.1 9 Sur 22 Sudeste 0 930.8 -1.8 37
2019-03-30 12:00:00 12.5 12 Sudeste 22 Sudeste 0 931.8 -1 41
2019-03-30 11:00:00 11.4 10 Sudeste 22 Sudeste 0 932.5 -0.2 42
2019-03-30 10:00:00 10.7 9 Este 20 Este 0 932.6 -0.4 45
2019-03-30 09:00:00 9.2 7 Sudeste 16 Sudeste 0 932.8 -0.1 46
2019-03-30 08:00:00 6.4 5 Nordeste 12 Nordeste 0 932.7 -0.2 55
2019-03-30 07:00:00 4.8 8 Nordeste 17 Nordeste 0 933 -0.2 61
2019-03-30 06:00:00 4.9 9 Nordeste 17 Nordeste 0 932.9 -0.6 63
2019-03-30 05:00:00 4 8 Nordeste 17 Nordeste 0 932.9 -0.9 66
2019-03-30 04:00:00 4.8 9 Nordeste 14 Nordeste 0 933.2 -0.8 64
2019-03-30 03:00:00 5.4 6 Nordeste 14 Nordeste 0 933.5 -0.6 61
2019-03-30 02:00:00 6.3 7 Nordeste 15 Nordeste 0 933.8 0 57
2019-03-30 01:00:00 7.7 9 Este 20 Este 0 934 0.6 52
2019-03-30 00:00:00 8.3 7 Este 20 Este 0 934.1 1.1 45
2019-03-29 23:00:00 9.4 6 Este 14 Nordeste 0 933.8 1.2 38
2019-03-29 22:00:00 9.6 8 Nordeste 13 Nordeste 0 933.4 1.1 36
2019-03-29 21:00:00 10.4 6 Nordeste 12 Nordeste 0 933 1 34
2019-03-29 20:00:00 12.1 5 Este 16 Sur 0 932.6 0.7 32
2019-03-29 19:00:00 13.7 7 Sudeste 23 Sudeste 0 932.3 -0.1 30
2019-03-29 18:00:00 15.3 11 Sudeste 28 Este 0 932 -1.1 27
2019-03-29 17:00:00 15.9 11 Sudeste 26 Este 0 931.9 -2.1 26
2019-03-29 16:00:00 15.9 13 Este 26 Sudeste 0 932.4 -2.4 27
2019-03-29 15:00:00 15 13 Sudeste 28 Sudeste 0 933.1 -2.4 28
2019-03-29 14:00:00 15 11 Sudeste 32 Este 0 934 -2.1 29
2019-03-29 13:00:00 13.9 13 Sudeste 26 Sudeste 0 934.8 -1.8 31
2019-03-29 12:00:00 13 11 Sudeste 25 Sudeste 0 935.5 -1.3 31
2019-03-29 11:00:00 11.9 13 Este 26 Sudeste 0 936.1 -0.6 32
2019-03-29 10:00:00 11.1 10 Sudeste 24 Sudeste 0 936.6 0.5 32
2019-03-29 09:00:00 9.9 10 Sudeste 18 Sudeste 0 936.8 0.9 33
2019-03-29 08:00:00 7.8 6 Este 13 Nordeste 0 936.7 0.9 39
2019-03-29 07:00:00 5.9 7 Nordeste 15 Nordeste 0 936.1 0.4 40
2019-03-29 06:00:00 5.9 9 Nordeste 16 Nordeste 0 935.9 -0.1 39
2019-03-29 05:00:00 6.2 9 Nordeste 17 Nordeste 0 935.8 -0.3 38
2019-03-29 04:00:00 6.6 8 Nordeste 16 Nordeste 0 935.7 -0.1 37
2019-03-29 03:00:00 6.7 8 Nordeste 15 Nordeste 0 936 0.7 36
2019-03-29 02:00:00 7.5 5 Nordeste 14 Nordeste 0 936.1 0.9 34
2019-03-29 01:00:00 9.2 8 Este 12 Este 0 935.8 0.5 33
2019-03-29 00:00:00 6.5 2 Nordeste 7 Nordeste 0 935.3 0.1 36
2019-03-28 23:00:00 6.6 4 Nordeste 7 Nordeste 0 935.2 0.5 35
2019-03-28 22:00:00 7.8 3 Nordeste 6 Nordeste 0 935.3 0.7 33
2019-03-28 21:00:00 8.6 3 Nordeste 6 Nordeste 0 935.2 0.9 32
2019-03-28 20:00:00 10.1 3 Nordeste 6 Sur 0 934.7 0.3 29
2019-03-28 19:00:00 14.8 5 Sudeste 15 Sur 0 934.6 -0.4 23
2019-03-28 18:00:00 16.3 7 Sur 16 Sudeste 0 934.3 -1.4 23
2019-03-28 17:00:00 16.9 4 Sudeste 18 Sudoeste 0 934.4 -2.1 22
2019-03-28 16:00:00 16.9 5 Sudoeste 23 Sudeste 0 935 -2 23
2019-03-28 15:00:00 16.5 4 Sudoeste 18 Sudeste 0 935.7 -1.7 23
2019-03-28 14:00:00 15.1 7 Sudeste 21 Sudeste 0 936.5 -1.4 24
2019-03-28 13:00:00 14.7 8 Sur 19 Sudeste 0 937 -0.9 25
2019-03-28 12:00:00 14.2 6 Sudeste 19 Sudeste 0 937.4 -0.7 27
2019-03-28 11:00:00 12.9 8 Sudeste 18 Sudeste 0 937.9 -0.2 29
2019-03-28 10:00:00 11.9 7 Sudeste 18 Sudeste 0 937.9 0 34
2019-03-28 09:00:00 10 10 Este 18 Este 0 938.1 0.8 35
2019-03-28 08:00:00 7.9 6 Nordeste 13 Nordeste 0 938.1 1 36
2019-03-28 07:00:00 5.2 6 Nordeste 13 Nordeste 0 937.9 1.2 37
2019-03-28 06:00:00 5.6 8 Nordeste 16 Nordeste 0 937.3 0.6 36
2019-03-28 05:00:00 6.4 10 Nordeste 15 Nordeste 0 937.1 0.5 36
2019-03-28 04:00:00 6.5 10 Nordeste 18 Nordeste 0 936.7 0.1 35
2019-03-28 03:00:00 7.3 5 Nordeste 18 Nordeste 0 936.7 0.7 33
2019-03-28 02:00:00 8.5 12 Nordeste 21 Nordeste 0 936.6 1.3 33
2019-03-28 01:00:00 7.3 5 Este 11 Este 0 936.6 2 36
2019-03-28 00:00:00 7.7 2 Nordeste 13 Norte 0 936 1.8 33
2019-03-27 23:00:00 9.2 4 Nordeste 15 Nordeste 0 935.3 1.5 34
2019-03-27 22:00:00 7.9 0 Calma 8 Nordeste 0 934.6 1.2 36
2019-03-27 21:00:00 9.7 0 Calma 9 Noroeste 0 934.2 1.2 33
2019-03-27 20:00:00 10.6 0 Calma 5 Oeste 0 933.8 1 32
2019-03-27 19:00:00 14.1 4 Noroeste 15 Sudeste 0 933.4 0.3 27
2019-03-27 18:00:00 16.5 9 Sur 19 Este 0 933 -0.9 26
2019-03-27 17:00:00 17.3 6 Sudeste 17 Este 0 932.8 -1.7 26
2019-03-27 16:00:00 16.8 6 Este 18 Sudeste 0 933.1 -2.2 27
2019-03-27 15:00:00 15.8 5 Sur 18 Sur 0 933.9 -1.6 29
2019-03-27 14:00:00 14.9 4 Sudoeste 18 Sudeste 0 934.5 -1.4 31
2019-03-27 13:00:00 13.4 4 Sur 18 Sudeste 0 935.3 -0.7 33
2019-03-27 12:00:00 12.7 5 Sur 18 Sudeste 0 935.5 -0.4 36
2019-03-27 11:00:00 11.4 6 Sur 17 Sur 0 935.9 0 38
2019-03-27 10:00:00 9.8 5 Sudeste 13 Sur 0 936 0.8 40
2019-03-27 09:00:00 8.4 4 Sur 13 Sur 0 935.9 1.3 46
2019-03-27 08:00:00 5.6 4 Nordeste 10 Este 0 935.9 1.6 43
2019-03-27 07:00:00 2.6 5 Nordeste 10 Nordeste 0 935.2 1.1 43
2019-03-27 06:00:00 3.6 7 Nordeste 11 Nordeste 0 934.6 1 38
2019-03-27 05:00:00 3.8 5 Nordeste 9 Nordeste 0 934.3 0.6 38
2019-03-27 04:00:00 5.3 5 Nordeste 12 Nordeste 0 934.1 0.3 31
2019-03-27 03:00:00 6.9 6 Nordeste 13 Nordeste 0 933.6 0.6 28
2019-03-27 02:00:00 7.4 6 Nordeste 13 Nordeste 0 933.7 1.3 27
2019-03-27 01:00:00 7.9 4 Nordeste 9 Nordeste 0 933.8 2.2 27
2019-03-27 00:00:00 7.6 2 Nordeste 10 Nordeste 0 933 2.1 28
2019-03-26 23:00:00 9.8 4 Nordeste 13 Nordeste 0 932.4 2.7 26
2019-03-26 22:00:00 11.1 5 Nordeste 17 Este 0 931.6 2.5 25
2019-03-26 21:00:00 12.5 6 Este 13 Este 0 930.9 2.2 25
2019-03-26 20:00:00 13.5 6 Nordeste 19 Este 0 929.7 1.3 23
2019-03-26 19:00:00 16.5 10 Este 36 Nordeste 0 929.1 0.2 23
2019-03-26 18:00:00 18.7 16 Este 37 Este 0 928.7 -0.6 23
2019-03-26 17:00:00 19.8 13 Este 28 Nordeste 0 928.4 -1.4 24
2019-03-26 16:00:00 19.4 13 Este 29 Nordeste 0 928.9 -1.4 25
2019-03-26 15:00:00 18.3 15 Este 31 Nordeste 0 929.3 -1.2 25
2019-03-26 14:00:00 17.9 12 Este 24 Este 0 929.8 -1.3 27
2019-03-26 13:00:00 17.3 12 Este 28 Este 0 930.3 -0.7 29
2019-03-26 12:00:00 15.9 16 Este 30 Este 0 930.5 -0.4 30
2019-03-26 11:00:00 14.4 18 Este 32 Este 0 931.1 0 31
2019-03-26 10:00:00 12.5 17 Este 30 Nordeste 0 931 0.1 32
2019-03-26 09:00:00 11 13 Este 24 Nordeste 0 930.9 0.2 35
2019-03-26 08:00:00 7.9 5 Este 12 Este 0 931.1 0.5 41
2019-03-26 07:00:00 6 7 Este 16 Nordeste 0 930.9 0 44
2019-03-26 06:00:00 4.6 9 Nordeste 13 Nordeste 0 930.7 -0.2 48
2019-03-26 05:00:00 3.8 5 Nordeste 13 Nordeste 0 930.6 -0.4 49
2019-03-26 04:00:00 4.8 6 Este 12 Nordeste 0 930.9 -0.2 46
2019-03-26 03:00:00 5 7 Nordeste 12 Nordeste 0 930.9 -0.2 45
2019-03-26 02:00:00 6.2 6 Nordeste 12 Nordeste 0 931 0.2 43
2019-03-26 01:00:00 6.7 3 Nordeste 7 Sudeste 0 931.1 0.7 43
2019-03-26 00:00:00 6.8 0 Calma 5 Noroeste 0 931.1 1.5 41
2019-03-25 23:00:00 9 0 Calma 9 Nordeste 0 930.8 1.7 36
2019-03-25 22:00:00 12.3 5 Nordeste 18 Norte 0 930.4 1.5 33
2019-03-25 21:00:00 12.2 5 Nordeste 12 Nordeste 0 929.6 1 34
2019-03-25 20:00:00 14.9 6 Nordeste 30 Norte 0 929.1 0.3 31
2019-03-25 19:00:00 16.9 10 Norte 28 Norte 0 928.9 -0.5 29
2019-03-25 18:00:00 18.4 14 Norte 36 Nordeste 0 928.6 -1.5 27
2019-03-25 17:00:00 20.3 6 Norte 23 Nordeste 0 928.8 -2.2 26
2019-03-25 16:00:00 20.2 6 Nordeste 25 Nordeste 0 929.4 -2.6 26
2019-03-25 15:00:00 19.4 4 Noroeste 18 Este 0 930.1 -2.7 27
2019-03-25 14:00:00 19.1 13 Sudeste 27 Sur 0 931 -2.4 27
2019-03-25 13:00:00 19 4 Este 21 Sudeste 0 932 -1.7 28
2019-03-25 12:00:00 17.6 6 Sudeste 19 Sudeste 0 932.8 -0.9 29
2019-03-25 11:00:00 16.9 5 Este 19 Sudeste 0 933.4 -0.3 31
2019-03-25 10:00:00 15.9 6 Nordeste 20 Este 0 933.7 0.1 34
2019-03-25 09:00:00 14.2 9 Este 16 Nordeste 0 933.7 0.3 34
2019-03-25 08:00:00 11.4 4 Nordeste 11 Nordeste 0 933.7 0.2 39
2019-03-25 07:00:00 8.8 5 Nordeste 10 Nordeste 0 933.6 -0.1 41
2019-03-25 06:00:00 7.9 5 Nordeste 9 Nordeste 0 933.4 -0.5 44
2019-03-25 05:00:00 8.6 4 Nordeste 12 Norte 0 933.5 -0.7 43
2019-03-25 04:00:00 8.9 9 Nordeste 16 Nordeste 0 933.7 -0.5 42
2019-03-25 03:00:00 9.4 9 Nordeste 14 Nordeste 0 933.9 -0.1 41
2019-03-25 02:00:00 9.8 8 Este 22 Nordeste 0 934.2 0.5 40
2019-03-25 01:00:00 11.2 8 Nordeste 14 Este 0 934.2 0.5 40
2019-03-25 00:00:00 10 6 Nordeste 9 Nordeste 0 934 0.8 43
2019-03-24 23:00:00 9 0 Calma 8 Nordeste 0 933.7 1 43
2019-03-24 22:00:00 11.2 7 Nordeste 10 Nordeste 0 933.7 1.2 37
2019-03-24 21:00:00 10.5 3 Nordeste 6 Nordeste 0 933.2 0.8 37
2019-03-24 20:00:00 12.7 4 Nordeste 7 Nordeste 0 932.7 0.1 31
2019-03-24 19:00:00 16.6 4 Nordeste 20 Sudeste 0 932.5 -0.2 27
2019-03-24 18:00:00 18.6 10 Sudeste 29 Sudeste 0 932.4 -0.7 25
2019-03-24 17:00:00 19.5 10 Este 28 Sudeste 0 932.6 -1.1 25
2019-03-24 16:00:00 19.8 12 Sudeste 33 Sudeste 0 932.7 -1.7 24
2019-03-24 15:00:00 18.6 14 Sudeste 36 Este 0 933.1 -1.9 26
2019-03-24 14:00:00 18.6 14 Sudeste 33 Sudeste 0 933.7 -1.9 26
2019-03-24 13:00:00 17.7 15 Sudeste 31 Sudeste 0 934.4 -1.5 27
2019-03-24 12:00:00 17.2 12 Este 28 Este 0 935 -0.7 32
2019-03-24 11:00:00 16.1 13 Sudeste 25 Sudeste 0 935.6 0.2 34
2019-03-24 10:00:00 14.7 12 Este 18 Este 0 935.9 0.9 39
2019-03-24 09:00:00 12.5 4 Nordeste 13 Nordeste 0 935.7 0.9 45
2019-03-24 08:00:00 9 6 Nordeste 12 Nordeste 0 935.4 0.7 52
2019-03-24 07:00:00 7.5 4 Nordeste 11 Nordeste 0 935 0.1 54
2019-03-24 06:00:00 7.6 4 Nordeste 11 Nordeste 0 934.8 -0.4 56
2019-03-24 05:00:00 7.8 6 Nordeste 12 Este 0 934.7 -0.9 55
2019-03-24 04:00:00 8.4 7 Nordeste 13 Nordeste 0 934.9 -0.8 55
2019-03-24 03:00:00 8.7 5 Nordeste 13 Nordeste 0 935.2 -0.6 51
2019-03-24 02:00:00 10.6 2 Este 15 Este 0 935.6 -0.1 48
2019-03-24 01:00:00 11.8 4 Este 11 Este 0 935.7 0.3 45
2019-03-24 00:00:00 11.5 4 Nordeste 8 Nordeste 0 935.8 0.9 46
2019-03-23 23:00:00 11.6 4 Nordeste 7 Nordeste 0 935.7 1.3 45
2019-03-23 22:00:00 10.9 5 Nordeste 8 Sudeste 0 935.4 1.4 42
2019-03-23 21:00:00 12.9 0 Calma 9 Sudoeste 0 934.9 1.4 38
2019-03-23 20:00:00 14.4 2 Sur 12 Sur 0 934.4 1 34
2019-03-23 19:00:00 15.9 6 Sur 14 Sur 0 934 0.3 31
2019-03-23 18:00:00 16.8 9 Sudeste 24 Sur 0 933.5 -0.7 29
2019-03-23 17:00:00 17.9 14 Sudeste 30 Sudeste 0 933.4 -1.3 27
2019-03-23 16:00:00 18.4 11 Este 28 Este 0 933.7 -2.2 26
2019-03-23 15:00:00 17.9 13 Este 30 Este 0 934.2 -2.5 28
2019-03-23 14:00:00 18.1 12 Este 32 Este 0 934.7 -2.5 29
2019-03-23 13:00:00 17.7 15 Sudeste 30 Sudeste 0 935.9 -1.7 31
2019-03-23 12:00:00 16.2 15 Este 32 Este 0 936.7 -0.8 33
2019-03-23 11:00:00 15.3 9 Este 18 Sudeste 0 937.2 -0.2 38
2019-03-23 10:00:00 12.9 6 Sudoeste 12 Sudoeste 0 937.6 0.5 46
2019-03-23 09:00:00 9.5 0 Calma -- -- 0 937.5 0.2 60
2019-03-23 08:00:00 7 0 Calma -- -- 0 937.4 0 69
2019-03-23 07:00:00 4.2 0 Calma 6 Nordeste 0 937.1 -0.3 72
2019-03-23 06:00:00 4.4 0 Calma 5 Nordeste 0 937.3 -0.4 70
2019-03-23 05:00:00 5.6 5 Nordeste 9 Este 0 937.4 -0.7 63
2019-03-23 04:00:00 6.9 7 Nordeste 10 Nordeste 0 937.4 -0.5 62
2019-03-23 03:00:00 5.4 3 Nordeste 9 Este 0 937.7 -0.4 64
2019-03-23 02:00:00 5.4 3 Nordeste 7 Nordeste 0 938.1 0.1 61
2019-03-23 01:00:00 7.9 6 Nordeste 11 Nordeste 0 937.9 0.9 49
2019-03-23 00:00:00 9.2 7 Nordeste 12 Nordeste 0 938.1 1.7 43
2019-03-22 23:00:00 8.2 4 Nordeste 31 Sudeste 0 938 2.1 42
2019-03-22 22:00:00 7.4 4 Nordeste 5 Nordeste 0 937 1.2 43
2019-03-22 21:00:00 7.9 0 Calma 5 Norte 0 936.4 1.1 40
2019-03-22 20:00:00 10.2 3 Nordeste 5 Nordeste 0 935.9 0.6 34
2019-03-22 19:00:00 14.5 4 Este 14 Sudeste 0 935.8 0.1 27
2019-03-22 18:00:00 16.1 7 Este 24 Sudeste 0 935.3 -0.9 26
2019-03-22 17:00:00 16.3 10 Sudeste 31 Sudeste 0 935.3 -1.5 25
2019-03-22 16:00:00 16.4 7 Este 25 Sudeste 0 935.7 -1.8 26
2019-03-22 15:00:00 15.9 10 Este 28 Este 0 936.2 -1.7 27
2019-03-22 14:00:00 15.5 8 Sudeste 33 Nordeste 0 936.8 -1.5 28
2019-03-22 13:00:00 14 11 Sudeste 23 Sudeste 0 937.5 -0.9 31
2019-03-22 12:00:00 13.6 6 Este 19 Sudeste 0 937.9 -0.5 34
2019-03-22 11:00:00 12.2 4 Sudeste 18 Sur 0 938.3 -0.2 35
2019-03-22 10:00:00 10.1 3 Oeste 9 Sur 0 938.4 0.1 39
2019-03-22 09:00:00 8.7 2 Sur 3 Sur 0 938.4 0.3 44
2019-03-22 08:00:00 3.2 0 Calma 5 Nordeste 0 938.5 0.8 60
2019-03-22 07:00:00 0.3 3 Nordeste 5 Nordeste 0 938.3 0.5 64
2019-03-22 06:00:00 0.6 3 Nordeste 7 Nordeste 0 938.1 0.3 60
2019-03-22 05:00:00 1.2 2 Nordeste 9 Nordeste 0 937.7 0 56
2019-03-22 04:00:00 3.5 6 Nordeste 11 Nordeste 0 937.8 0.3 48
2019-03-22 03:00:00 4.2 7 Nordeste 15 Nordeste 0 937.8 0.9 46
2019-03-22 02:00:00 4.5 6 Nordeste 14 Nordeste 0 937.7 0.8 45
2019-03-22 01:00:00 5.4 6 Nordeste 21 Sudeste 0 937.5 0.6 43
2019-03-22 00:00:00 4.7 4 Nordeste 6 Norte 0 936.9 0.4 45
2019-03-21 23:00:00 4.8 3 Nordeste 7 Nordeste 0 936.9 1 43
2019-03-21 22:00:00 5.3 0 Calma 5 Nordeste 0 936.9 1.3 41
2019-03-21 21:00:00 5.8 0 Calma 5 Sur 0 936.5 1.3 39
2019-03-21 20:00:00 7.6 0 Calma 8 Sur 0 935.9 0.7 35
2019-03-21 19:00:00 11.2 5 Sur 16 Sur 0 935.6 -0.1 29
2019-03-21 18:00:00 13.3 6 Sur 21 Sudoeste 0 935.2 -0.9 28
2019-03-21 17:00:00 13.6 6 Sudeste 16 Sudoeste 0 935.2 -1.5 29
2019-03-21 16:00:00 14 10 Sudoeste 20 Sur 0 935.7 -2 29
2019-03-21 15:00:00 14.2 6 Sur 19 Sudeste 0 936.1 -2 31
2019-03-21 14:00:00 12 6 Sur 21 Sudoeste 0 936.7 -1.7 33
2019-03-21 13:00:00 11.6 10 Sur 21 Sudeste 0 937.7 -0.9 36
2019-03-21 12:00:00 11.2 5 Sur 18 Sur 0 938.1 -0.6 38
2019-03-21 11:00:00 10.2 7 Sudeste 15 Sur 0 938.4 -0.2 39
2019-03-21 10:00:00 8.5 6 Sudoeste 12 Sudoeste 0 938.6 0.3 44
2019-03-21 09:00:00 8.4 6 Sudeste 11 Sudeste 0 938.7 0.7 43
2019-03-21 08:00:00 4.7 4 Nordeste 9 Nordeste 0 938.6 0.9 57
2019-03-21 07:00:00 3 7 Nordeste 12 Nordeste 0 938.3 0.7 61
2019-03-21 06:00:00 3.1 7 Nordeste 13 Nordeste 0 938 0.1 58
2019-03-21 05:00:00 3.6 5 Nordeste 17 Nordeste 0 937.7 -0.2 54
2019-03-21 04:00:00 4.9 9 Nordeste 18 Este 0 937.6 0.1 48
2019-03-21 03:00:00 5.1 10 Nordeste 18 Nordeste 0 937.9 0.2 43
2019-03-21 02:00:00 6.4 8 Nordeste 19 Este 0 937.9 0.5 39
2019-03-21 01:00:00 5.4 4 Nordeste 12 Nordeste 0 937.5 0.4 41
2019-03-21 00:00:00 5.5 4 Nordeste 9 Nordeste 0 937.7 0.8 41